createdAt,value
2023-03-21T00:01:20.523Z,14.38
2023-03-21T00:02:52.649Z,14.34
2023-03-21T00:04:25.693Z,14.35
2023-03-21T00:05:57.321Z,14.33
2023-03-21T00:07:28.976Z,14.31
2023-03-21T00:09:00.556Z,14.30
2023-03-21T00:10:41.828Z,14.30
2023-03-21T00:12:16.965Z,14.30
2023-03-21T00:13:52.107Z,14.31
2023-03-21T00:15:40.022Z,14.34
2023-03-21T00:17:20.929Z,14.31
2023-03-21T00:19:02.220Z,14.31
2023-03-21T00:20:40.602Z,14.27
2023-03-21T00:22:17.304Z,14.23
2023-03-21T00:23:49.599Z,14.19
2023-03-21T00:25:21.329Z,14.15
2023-03-21T00:26:53.676Z,14.12
2023-03-21T00:28:35.256Z,14.04
2023-03-21T00:30:12.816Z,13.99
2023-03-21T00:31:49.070Z,13.95
2023-03-21T00:33:31.396Z,13.93
2023-03-21T00:37:36.605Z,13.78
2023-03-21T00:39:08.607Z,13.76
2023-03-21T00:40:48.747Z,13.71
2023-03-21T00:42:21.807Z,13.63
2023-03-21T00:43:55.721Z,13.60
2023-03-21T00:45:27.384Z,13.54
2023-03-21T00:47:07.549Z,13.48
2023-03-21T00:48:39.534Z,13.42
2023-03-21T00:50:12.018Z,13.33
2023-03-21T00:51:43.982Z,13.24
2023-03-21T00:53:15.705Z,13.15
2023-03-21T00:54:47.878Z,13.13
2023-03-21T00:56:19.485Z,13.07
2023-03-21T00:58:01.123Z,13.04
2023-03-21T00:59:33.513Z,12.97
2023-03-21T01:01:07.133Z,12.96
2023-03-21T01:03:17.436Z,12.98
2023-03-21T01:04:54.248Z,13.02
2023-03-21T01:06:27.540Z,13.05
2023-03-21T01:08:00.417Z,13.10
2023-03-21T01:09:37.880Z,13.13
2023-03-21T01:16:08.295Z,13.06
2023-03-21T01:17:39.862Z,13.02
2023-03-21T01:19:25.034Z,13.00
2023-03-21T01:20:58.407Z,12.94
2023-03-21T01:22:30.103Z,12.84
2023-03-21T01:24:01.950Z,12.73
2023-03-21T01:25:35.679Z,12.68
2023-03-21T01:27:07.181Z,12.59
2023-03-21T01:28:39.069Z,12.52
2023-03-21T01:30:20.278Z,12.50
2023-03-21T01:31:55.863Z,12.46
2023-03-21T01:33:28.368Z,12.42
2023-03-21T01:34:59.874Z,12.41
2023-03-21T01:36:31.926Z,12.39
2023-03-21T01:38:03.541Z,12.32
2023-03-21T01:39:35.479Z,12.24
2023-03-21T01:41:18.614Z,12.18
2023-03-21T01:42:51.443Z,12.13
2023-03-21T01:44:22.904Z,12.12
2023-03-21T01:46:06.703Z,12.08
2023-03-21T01:47:38.430Z,12.00
2023-03-21T01:49:34.481Z,11.99
2023-03-21T01:51:06.711Z,12.00
2023-03-21T01:52:39.105Z,11.99
2023-03-21T01:54:14.522Z,11.97
2023-03-21T01:55:48.173Z,11.96
2023-03-21T01:57:22.568Z,11.95
2023-03-21T01:58:57.978Z,11.96
2023-03-21T02:00:29.722Z,11.98
2023-03-21T02:02:01.490Z,11.99
2023-03-21T02:03:38.729Z,11.97
2023-03-21T02:05:10.459Z,11.91
2023-03-21T02:06:46.952Z,11.87
2023-03-21T02:08:18.593Z,11.79
2023-03-21T02:09:50.327Z,11.73
2023-03-21T02:11:22.489Z,11.68
2023-03-21T02:12:55.850Z,11.62
2023-03-21T02:14:29.578Z,11.61
2023-03-21T02:16:15.653Z,11.63
2023-03-21T02:17:49.952Z,11.63
2023-03-21T02:19:31.898Z,11.62
2023-03-21T02:21:15.034Z,11.59
2023-03-21T02:23:05.097Z,11.59
2023-03-21T02:24:41.078Z,11.56
2023-03-21T02:26:19.834Z,11.52
2023-03-21T02:27:52.990Z,11.50
2023-03-21T02:29:44.887Z,11.51
2023-03-21T02:31:48.766Z,11.55
2023-03-21T02:38:36.924Z,11.33
2023-03-21T02:40:22.930Z,11.36
2023-03-21T02:42:14.078Z,11.44
2023-03-21T02:43:47.646Z,11.47
2023-03-21T02:45:54.506Z,11.51
2023-03-21T02:47:44.294Z,11.57
2023-03-21T02:49:16.092Z,11.61
2023-03-21T02:50:51.583Z,11.63
2023-03-21T02:52:35.877Z,11.64
2023-03-21T02:54:38.252Z,11.61
2023-03-21T02:56:11.108Z,11.58
2023-03-21T02:57:44.001Z,11.55
2023-03-21T02:59:16.336Z,11.56
2023-03-21T03:00:49.409Z,11.54
2023-03-21T03:02:24.097Z,11.53
2023-03-21T03:04:00.003Z,11.56
2023-03-21T03:05:34.768Z,11.63
2023-03-21T03:07:09.246Z,11.63
2023-03-21T03:09:01.266Z,11.58
2023-03-21T03:10:52.624Z,11.56
2023-03-21T03:12:30.563Z,11.54
2023-03-21T03:14:21.072Z,11.50
2023-03-21T03:15:54.909Z,11.47
2023-03-21T03:17:37.691Z,11.51
2023-03-21T03:19:09.812Z,11.55
2023-03-21T03:20:41.484Z,11.57
2023-03-21T03:22:18.039Z,11.60
2023-03-21T03:23:56.210Z,11.57
2023-03-21T03:25:41.580Z,11.56
2023-03-21T03:27:25.155Z,11.54
2023-03-21T03:28:59.535Z,11.48
2023-03-21T03:30:41.163Z,11.41
2023-03-21T03:32:20.094Z,11.33
2023-03-21T03:33:52.712Z,11.30
2023-03-21T03:35:24.740Z,11.27
2023-03-21T03:36:57.159Z,11.25
2023-03-21T03:38:28.930Z,11.26
2023-03-21T03:40:05.034Z,11.28
2023-03-21T03:43:47.158Z,11.31
2023-03-21T03:45:18.832Z,11.34
2023-03-21T03:47:17.354Z,11.42
2023-03-21T03:49:12.301Z,11.48
2023-03-21T03:50:45.715Z,11.54
2023-03-21T03:52:26.798Z,11.55
2023-03-21T03:54:24.886Z,11.50
2023-03-21T03:55:56.527Z,11.42
2023-03-21T03:57:28.184Z,11.37
2023-03-21T03:58:59.740Z,11.35
2023-03-21T04:00:34.273Z,11.33
2023-03-21T04:02:06.360Z,11.36
2023-03-21T04:03:48.423Z,11.29
2023-03-21T04:05:22.221Z,11.27
2023-03-21T04:06:53.831Z,11.29
2023-03-21T04:08:25.292Z,11.34
2023-03-21T04:09:57.863Z,11.39
2023-03-21T04:11:29.420Z,11.37
2023-03-21T04:13:01.203Z,11.32
2023-03-21T04:14:43.991Z,11.25
2023-03-21T04:16:16.604Z,11.23
2023-03-21T04:17:48.100Z,11.23
2023-03-21T04:19:19.654Z,11.24
2023-03-21T04:20:51.563Z,11.29
2023-03-21T04:22:23.182Z,11.35
2023-03-21T04:23:57.718Z,11.37
2023-03-21T04:25:33.804Z,11.36
2023-03-21T04:27:06.027Z,11.38
2023-03-21T04:28:37.696Z,11.39
2023-03-21T04:30:12.164Z,11.36
2023-03-21T04:31:43.893Z,11.29
2023-03-21T04:33:15.538Z,11.22
2023-03-21T04:34:50.385Z,11.14
2023-03-21T04:36:31.435Z,11.02
2023-03-21T04:38:03.335Z,10.93
2023-03-21T04:39:34.995Z,10.84
2023-03-21T04:41:06.693Z,10.76
2023-03-21T04:42:38.296Z,10.72
2023-03-21T04:44:10.514Z,10.71
2023-03-21T04:45:41.989Z,10.69
2023-03-21T04:47:16.222Z,10.65
2023-03-21T04:48:48.030Z,10.60
2023-03-21T04:50:19.690Z,10.60
2023-03-21T04:51:51.589Z,10.53
2023-03-21T04:53:29.625Z,10.49
2023-03-21T04:55:06.392Z,10.44
2023-03-21T04:56:39.473Z,10.38
2023-03-21T04:58:11.143Z,10.37
2023-03-21T04:59:43.147Z,10.30
2023-03-21T05:01:15.237Z,10.28
2023-03-21T05:02:47.443Z,10.26
2023-03-21T05:04:19.047Z,10.22
2023-03-21T05:05:50.986Z,10.21
2023-03-21T05:07:26.423Z,10.20
2023-03-21T05:09:01.692Z,10.20
2023-03-21T05:10:33.461Z,10.17
2023-03-21T05:12:05.125Z,10.13
2023-03-21T05:13:36.878Z,10.07
2023-03-21T05:15:08.809Z,10.05
2023-03-21T05:16:49.039Z,10.05
2023-03-21T05:18:25.113Z,10.05
2023-03-21T05:19:57.085Z,10.04
2023-03-21T05:21:34.297Z,10.06
2023-03-21T05:23:05.714Z,10.09
2023-03-21T05:24:41.901Z,10.16
2023-03-21T05:26:13.784Z,10.18
2023-03-21T05:27:45.509Z,10.22
2023-03-21T05:29:17.820Z,10.23
2023-03-21T05:30:49.498Z,10.23
2023-03-21T05:32:21.516Z,10.22
2023-03-21T05:33:53.225Z,10.24
2023-03-21T05:35:26.832Z,10.30
2023-03-21T05:36:58.918Z,10.39
2023-03-21T05:38:31.606Z,10.42
2023-03-21T05:40:06.460Z,10.42
2023-03-21T05:41:37.937Z,10.48
2023-03-21T05:43:09.747Z,10.49
2023-03-21T05:44:41.191Z,10.50
2023-03-21T05:46:12.786Z,10.52
2023-03-21T05:47:44.473Z,10.54
2023-03-21T05:49:16.465Z,10.61
2023-03-21T05:50:48.002Z,10.67
2023-03-21T05:52:19.552Z,10.76
2023-03-21T05:53:52.024Z,10.90
2023-03-21T05:55:23.527Z,10.97
2023-03-21T05:56:55.448Z,10.99
2023-03-21T05:58:27.052Z,11.04
2023-03-21T05:59:58.659Z,11.11
2023-03-21T06:01:30.943Z,11.14
2023-03-21T06:03:02.889Z,11.11
2023-03-21T06:04:34.588Z,11.14
2023-03-21T06:06:07.025Z,11.18
2023-03-21T06:07:38.875Z,11.22
2023-03-21T06:09:10.882Z,11.25
2023-03-21T06:10:42.566Z,11.29
2023-03-21T06:12:14.074Z,11.31
2023-03-21T06:13:45.958Z,11.32
2023-03-21T06:15:17.543Z,11.35
2023-03-21T06:16:49.173Z,11.39
2023-03-21T06:18:21.076Z,11.45
2023-03-21T06:19:52.823Z,11.50
2023-03-21T06:21:26.713Z,11.55
2023-03-21T06:22:58.502Z,11.68
2023-03-21T06:24:30.743Z,11.79
2023-03-21T06:26:02.440Z,11.93
2023-03-21T06:27:34.739Z,12.08
2023-03-21T06:29:06.490Z,12.20
2023-03-21T06:30:38.106Z,12.34
2023-03-21T06:32:09.745Z,12.46
2023-03-21T06:33:41.488Z,12.59
2023-03-21T06:35:13.199Z,12.72
2023-03-21T06:36:44.974Z,12.85
2023-03-21T06:38:16.569Z,13.01
2023-03-21T06:39:48.216Z,13.20
2023-03-21T06:41:19.769Z,13.44
2023-03-21T06:42:51.533Z,13.65
2023-03-21T06:44:24.620Z,13.85
2023-03-21T06:45:56.181Z,14.07
2023-03-21T06:47:27.912Z,14.24
2023-03-21T06:48:59.603Z,14.39
2023-03-21T06:50:32.002Z,14.56
2023-03-21T06:52:04.058Z,14.74
2023-03-21T06:53:36.299Z,14.86
2023-03-21T06:55:08.185Z,14.92
2023-03-21T06:56:39.761Z,15.04
2023-03-21T06:58:11.606Z,15.14
2023-03-21T06:59:43.305Z,15.24
2023-03-21T07:01:15.090Z,15.31
2023-03-21T07:02:48.301Z,15.29
2023-03-21T07:04:21.021Z,15.22
2023-03-21T07:05:53.021Z,15.21
2023-03-21T07:07:26.286Z,15.18
2023-03-21T07:09:00.033Z,15.14
2023-03-21T07:10:31.808Z,15.13
2023-03-21T07:12:03.468Z,15.10
2023-03-21T07:13:35.121Z,15.12
2023-03-21T07:15:07.090Z,15.14
2023-03-21T07:16:38.799Z,15.17
2023-03-21T07:18:10.535Z,15.20
2023-03-21T07:19:44.698Z,15.21
2023-03-21T07:21:16.476Z,15.20
2023-03-21T07:22:47.997Z,15.24
2023-03-21T07:24:19.626Z,15.29
2023-03-21T07:25:51.443Z,15.34
2023-03-21T07:27:23.042Z,15.40
2023-03-21T07:28:54.799Z,15.43
2023-03-21T07:30:26.547Z,15.41
2023-03-21T07:31:58.124Z,15.40
2023-03-21T07:33:30.153Z,15.36
2023-03-21T07:35:02.428Z,15.37
2023-03-21T07:36:34.031Z,15.33
2023-03-21T07:38:05.699Z,15.31
2023-03-21T07:39:37.352Z,15.25
2023-03-21T07:41:08.964Z,15.21
2023-03-21T07:42:40.801Z,15.15
2023-03-21T07:44:12.535Z,15.12
2023-03-21T07:45:44.423Z,15.09
2023-03-21T07:47:16.168Z,15.00
2023-03-21T07:48:47.732Z,14.91
2023-03-21T07:50:19.440Z,14.87
2023-03-21T07:51:51.157Z,14.93
2023-03-21T07:53:22.814Z,14.98
2023-03-21T07:54:54.771Z,15.05
2023-03-21T07:56:26.816Z,15.09
2023-03-21T07:57:58.710Z,15.12
2023-03-21T07:59:31.187Z,15.16
2023-03-21T08:01:02.797Z,15.19
2023-03-21T08:02:34.410Z,15.12
2023-03-21T08:04:06.773Z,14.98
2023-03-21T08:05:39.289Z,14.85
2023-03-21T08:07:11.093Z,14.77
2023-03-21T08:08:42.578Z,14.76
2023-03-21T08:10:14.189Z,14.75
2023-03-21T08:11:45.835Z,14.74
2023-03-21T08:13:17.464Z,14.73
2023-03-21T08:14:49.114Z,14.70
2023-03-21T08:16:21.137Z,14.63
2023-03-21T08:17:52.720Z,14.62
2023-03-21T08:19:24.262Z,14.64
2023-03-21T08:20:56.984Z,14.66
2023-03-21T08:22:28.628Z,14.64
2023-03-21T08:24:00.288Z,14.66
2023-03-21T08:25:33.006Z,14.70
2023-03-21T08:27:04.519Z,14.75
2023-03-21T08:28:36.887Z,14.76
2023-03-21T08:30:09.724Z,14.80
2023-03-21T08:31:41.635Z,14.81
2023-03-21T08:33:13.741Z,14.83
2023-03-21T08:34:45.789Z,14.86
2023-03-21T08:36:17.795Z,14.88
2023-03-21T08:37:49.590Z,14.86
2023-03-21T08:39:22.022Z,14.87
2023-03-21T08:40:53.843Z,14.90
2023-03-21T08:42:26.672Z,14.88
2023-03-21T08:43:58.448Z,14.85
2023-03-21T08:45:30.305Z,14.89
2023-03-21T08:47:02.424Z,14.93
2023-03-21T08:48:33.968Z,15.01
2023-03-21T08:50:07.254Z,15.02
2023-03-21T08:51:38.962Z,15.01
2023-03-21T08:53:10.784Z,15.03
2023-03-21T08:54:42.935Z,15.12
2023-03-21T08:56:14.587Z,15.22
2023-03-21T08:57:46.767Z,15.31
2023-03-21T08:59:18.379Z,15.38
2023-03-21T09:00:50.119Z,15.42
2023-03-21T09:02:21.792Z,15.42
2023-03-21T09:03:53.388Z,15.45
2023-03-21T09:05:26.824Z,15.51
2023-03-21T09:07:01.876Z,15.56
2023-03-21T09:08:33.682Z,15.57
2023-03-21T09:10:20.712Z,15.61
2023-03-21T09:11:53.153Z,15.74
2023-03-21T09:13:24.931Z,15.83
2023-03-21T09:14:58.983Z,15.87
2023-03-21T09:16:31.317Z,15.96
2023-03-21T09:18:13.633Z,16.05
2023-03-21T09:19:46.672Z,16.16
2023-03-21T09:21:18.515Z,16.12
2023-03-21T09:22:51.041Z,16.09
2023-03-21T09:24:23.034Z,16.05
2023-03-21T09:25:54.831Z,16.05
2023-03-21T09:27:28.433Z,16.10
2023-03-21T09:29:00.987Z,16.16
2023-03-21T09:30:34.025Z,16.30
2023-03-21T09:32:07.239Z,16.47
2023-03-21T09:33:40.692Z,16.60
2023-03-21T09:35:13.184Z,16.70
2023-03-21T09:36:44.920Z,16.70
2023-03-21T09:38:17.292Z,16.79
2023-03-21T09:39:50.793Z,16.97
2023-03-21T09:41:28.559Z,17.12
2023-03-21T09:43:03.991Z,17.23
2023-03-21T09:44:53.773Z,17.39
2023-03-21T09:46:28.025Z,17.52
2023-03-21T09:48:00.007Z,17.65
2023-03-21T09:49:33.036Z,17.79
2023-03-21T09:51:04.960Z,17.94
2023-03-21T09:52:37.195Z,17.95
2023-03-21T09:54:13.937Z,17.88
2023-03-21T09:55:45.987Z,17.86
2023-03-21T09:57:21.114Z,17.85
2023-03-21T09:58:54.832Z,17.86
2023-03-21T10:00:31.121Z,17.97
2023-03-21T10:02:03.497Z,18.05
2023-03-21T10:03:37.946Z,18.08
2023-03-21T10:05:23.773Z,18.14
2023-03-21T10:06:57.942Z,18.09
2023-03-21T10:08:32.262Z,18.04
2023-03-21T10:10:04.774Z,18.08
2023-03-21T10:11:42.548Z,18.06
2023-03-21T10:13:15.390Z,18.08
2023-03-21T10:14:58.112Z,18.15
2023-03-21T10:16:31.284Z,18.30
2023-03-21T10:18:03.548Z,18.39
2023-03-21T10:19:35.080Z,18.50
2023-03-21T10:21:06.860Z,18.66
2023-03-21T10:22:38.455Z,18.79
2023-03-21T10:24:12.107Z,18.96
2023-03-21T10:25:46.062Z,19.05
2023-03-21T10:27:18.635Z,19.13
2023-03-21T10:28:53.410Z,19.17
2023-03-21T10:30:31.096Z,19.26
2023-03-21T10:32:02.900Z,19.28
2023-03-21T10:33:35.886Z,19.29
2023-03-21T10:35:09.505Z,19.35
2023-03-21T10:36:43.829Z,19.37
2023-03-21T10:38:19.411Z,19.33
2023-03-21T10:39:52.655Z,19.46
2023-03-21T10:41:24.219Z,19.57
2023-03-21T10:42:56.852Z,19.63
2023-03-21T10:44:31.909Z,19.71
2023-03-21T10:46:12.373Z,19.73
2023-03-21T10:47:46.024Z,19.78
2023-03-21T10:49:19.105Z,19.82
2023-03-21T10:50:52.052Z,19.96
2023-03-21T10:52:23.697Z,20.08
2023-03-21T10:53:55.666Z,20.16
2023-03-21T10:55:31.489Z,20.29
2023-03-21T10:57:05.181Z,20.42
2023-03-21T10:58:39.436Z,20.41
2023-03-21T11:00:17.180Z,20.47
2023-03-21T11:01:49.476Z,20.54
2023-03-21T11:03:21.996Z,20.54
2023-03-21T11:04:54.097Z,20.49
2023-03-21T11:06:30.916Z,20.52
2023-03-21T11:08:12.573Z,20.51
2023-03-21T11:09:46.299Z,20.46
2023-03-21T11:11:22.280Z,20.45
2023-03-21T11:12:56.398Z,20.39
2023-03-21T11:14:37.200Z,20.33
2023-03-21T11:16:10.192Z,20.37
2023-03-21T11:17:42.317Z,20.42
2023-03-21T11:19:15.452Z,20.45
2023-03-21T11:20:51.304Z,20.48
2023-03-21T11:22:23.999Z,20.46
2023-03-21T11:23:57.326Z,20.31
2023-03-21T11:25:34.369Z,20.22
2023-03-21T11:27:06.437Z,20.26
2023-03-21T11:28:44.630Z,20.23
2023-03-21T11:30:23.426Z,20.20
2023-03-21T11:31:59.265Z,20.20
2023-03-21T11:33:36.617Z,20.15
2023-03-21T11:35:14.368Z,20.22
2023-03-21T11:36:46.001Z,20.35
2023-03-21T11:38:27.793Z,20.35
2023-03-21T11:40:25.709Z,20.41
2023-03-21T11:41:57.556Z,20.34
2023-03-21T11:43:29.343Z,20.37
2023-03-21T11:45:02.783Z,20.44
2023-03-21T11:46:34.751Z,20.55
2023-03-21T11:48:11.840Z,20.65
2023-03-21T11:49:43.686Z,20.72
2023-03-21T11:51:41.310Z,20.87
2023-03-21T11:53:28.190Z,21.01
2023-03-21T11:55:28.904Z,21.05
2023-03-21T11:57:02.762Z,21.08
2023-03-21T11:58:52.879Z,21.14
2023-03-21T12:00:26.205Z,21.16
2023-03-21T12:02:06.474Z,21.04
2023-03-21T12:03:47.445Z,20.97
2023-03-21T12:05:21.920Z,20.94
2023-03-21T12:06:55.425Z,20.93
2023-03-21T12:08:31.974Z,20.91
2023-03-21T12:10:06.809Z,20.95
2023-03-21T12:11:41.636Z,20.95
2023-03-21T12:13:15.940Z,21.00
2023-03-21T12:14:47.670Z,21.02
2023-03-21T12:16:19.450Z,20.95
2023-03-21T12:17:51.150Z,20.81
2023-03-21T12:19:32.080Z,20.72
2023-03-21T12:21:18.971Z,20.70
2023-03-21T12:22:54.047Z,20.64
2023-03-21T12:24:29.950Z,20.63
2023-03-21T12:26:04.509Z,20.53
2023-03-21T12:27:42.483Z,20.38
2023-03-21T12:29:33.785Z,20.30
2023-03-21T12:31:11.464Z,20.27
2023-03-21T12:33:02.143Z,20.28
2023-03-21T12:34:39.704Z,20.39
2023-03-21T12:36:11.534Z,20.40
2023-03-21T12:38:02.444Z,20.44
2023-03-21T12:39:37.538Z,20.46
2023-03-21T12:41:12.118Z,20.48
2023-03-21T12:42:43.609Z,20.45
2023-03-21T12:44:16.291Z,20.42
2023-03-21T12:45:49.314Z,20.45
2023-03-21T12:47:22.329Z,20.43
2023-03-21T12:49:02.621Z,20.34
2023-03-21T12:50:37.718Z,20.28
2023-03-21T12:52:16.717Z,20.33
2023-03-21T12:53:53.401Z,20.34
2023-03-21T12:55:25.828Z,20.33
2023-03-21T12:56:58.980Z,20.38
2023-03-21T12:58:30.586Z,20.36
2023-03-21T13:00:14.566Z,20.31
2023-03-21T13:01:47.294Z,20.20
2023-03-21T13:03:37.406Z,20.06
2023-03-21T13:05:16.918Z,20.04
2023-03-21T13:06:48.717Z,20.10
2023-03-21T13:08:28.039Z,20.15
2023-03-21T13:10:02.280Z,20.18
2023-03-21T13:11:34.066Z,20.19
2023-03-21T13:13:10.092Z,20.12
2023-03-21T13:15:02.629Z,20.07
2023-03-21T13:16:41.742Z,20.03
2023-03-21T13:18:17.810Z,19.93
2023-03-21T13:19:56.401Z,19.90
2023-03-21T13:21:46.423Z,19.88
2023-03-21T13:23:19.062Z,19.88
2023-03-21T13:24:51.296Z,19.86
2023-03-21T13:26:31.459Z,19.83
2023-03-21T13:28:04.065Z,19.81
2023-03-21T13:29:42.779Z,19.86
2023-03-21T13:31:26.381Z,19.93
2023-03-21T13:33:40.044Z,19.98
2023-03-21T13:35:17.450Z,20.06
2023-03-21T13:36:49.485Z,20.12
2023-03-21T13:38:26.979Z,20.14
2023-03-21T13:40:13.015Z,20.08
2023-03-21T13:41:47.321Z,20.05
2023-03-21T13:43:31.073Z,20.04
2023-03-21T13:45:03.798Z,20.02
2023-03-21T13:46:52.211Z,20.00
2023-03-21T13:48:28.012Z,19.97
2023-03-21T13:50:18.147Z,19.92
2023-03-21T13:51:53.572Z,19.89
2023-03-21T13:53:25.447Z,19.87
2023-03-21T13:54:57.246Z,19.83
2023-03-21T13:56:30.585Z,19.84
2023-03-21T13:58:22.220Z,19.88
2023-03-21T14:00:13.928Z,19.88
2023-03-21T14:01:58.223Z,19.86
2023-03-21T14:03:31.484Z,19.85
2023-03-21T14:05:07.337Z,19.83
2023-03-21T14:06:47.653Z,19.81
2023-03-21T14:08:31.276Z,19.79
2023-03-21T14:10:07.511Z,19.77
2023-03-21T14:11:44.410Z,19.78
2023-03-21T14:13:19.586Z,19.74
2023-03-21T14:14:52.264Z,19.71
2023-03-21T14:16:25.385Z,19.61
2023-03-21T14:17:58.066Z,19.48
2023-03-21T14:19:31.148Z,19.41
2023-03-21T14:21:05.104Z,19.30
2023-03-21T14:22:37.177Z,19.18
2023-03-21T14:24:12.652Z,19.05
2023-03-21T14:25:47.747Z,18.81
2023-03-21T14:27:20.327Z,18.65
2023-03-21T14:28:52.761Z,18.49
2023-03-21T14:30:25.548Z,18.35
2023-03-21T14:31:57.426Z,18.16
2023-03-21T14:33:41.841Z,18.06
2023-03-21T14:35:13.684Z,17.98
2023-03-21T14:36:51.742Z,17.88
2023-03-21T14:38:32.944Z,17.76
2023-03-21T14:40:09.297Z,17.60
2023-03-21T14:41:51.407Z,17.41
2023-03-21T14:43:23.664Z,17.26
2023-03-21T14:45:00.783Z,17.16
2023-03-21T14:46:33.879Z,17.01
2023-03-21T14:48:10.843Z,16.86
2023-03-21T14:49:42.676Z,16.73
2023-03-21T14:51:14.448Z,16.61
2023-03-21T14:52:48.529Z,16.52
2023-03-21T14:54:20.757Z,16.42
2023-03-21T14:55:59.589Z,16.33
2023-03-21T14:57:31.972Z,16.26
2023-03-21T14:59:03.619Z,16.21
2023-03-21T15:00:35.811Z,16.16
2023-03-21T15:02:27.146Z,16.12
2023-03-21T15:04:00.594Z,16.01
2023-03-21T15:05:33.255Z,15.95
2023-03-21T15:07:06.330Z,15.93
2023-03-21T15:08:40.016Z,15.90
2023-03-21T15:10:31.971Z,15.82
2023-03-21T15:13:57.396Z,15.65
2023-03-21T15:15:33.940Z,15.58
2023-03-21T15:17:37.244Z,15.50
2023-03-21T15:19:11.403Z,15.45
2023-03-21T15:20:44.092Z,15.41
2023-03-21T15:22:22.785Z,15.35
2023-03-21T15:23:56.282Z,15.29
2023-03-21T15:25:28.929Z,15.23
2023-03-21T15:27:01.742Z,15.13
2023-03-21T15:28:33.608Z,15.01
2023-03-21T15:30:05.794Z,14.95
2023-03-21T15:31:40.048Z,14.89
2023-03-21T15:33:13.075Z,14.83
2023-03-21T15:34:45.116Z,14.83
2023-03-21T15:36:24.169Z,14.86
2023-03-21T15:37:57.009Z,14.86
2023-03-21T15:39:29.665Z,14.88
2023-03-21T15:41:16.633Z,14.91
2023-03-21T15:42:48.227Z,14.90
2023-03-21T15:44:20.073Z,14.92
2023-03-21T15:45:54.565Z,14.92
2023-03-21T15:47:44.794Z,14.90
2023-03-21T15:49:16.532Z,14.83
2023-03-21T15:50:51.081Z,14.80
2023-03-21T15:52:22.610Z,14.82
2023-03-21T15:53:57.163Z,14.82
2023-03-21T15:55:30.162Z,14.82
2023-03-21T15:57:05.105Z,14.74
2023-03-21T15:58:37.616Z,14.63
2023-03-21T16:00:21.089Z,14.56
2023-03-21T16:01:52.813Z,14.44
2023-03-21T16:03:28.218Z,14.36
2023-03-21T16:05:01.302Z,14.32
2023-03-21T16:06:34.087Z,14.27
2023-03-21T16:08:09.766Z,14.25
2023-03-21T16:09:46.164Z,14.23
2023-03-21T16:11:17.762Z,14.23
2023-03-21T16:12:49.428Z,14.31
2023-03-21T16:14:21.817Z,14.36
2023-03-21T16:15:53.497Z,14.43
2023-03-21T16:17:38.026Z,14.48
2023-03-21T16:19:09.802Z,14.54
2023-03-21T16:20:42.765Z,14.60
2023-03-21T16:22:14.681Z,14.60
2023-03-21T16:23:46.499Z,14.57
2023-03-21T16:25:18.715Z,14.57
2023-03-21T16:26:54.226Z,14.58
2023-03-21T16:28:26.132Z,14.55
2023-03-21T16:29:57.842Z,14.45
2023-03-21T16:31:30.269Z,14.32
2023-03-21T16:33:02.107Z,14.20
2023-03-21T16:34:34.116Z,14.14
2023-03-21T16:36:07.652Z,14.14
2023-03-21T16:37:39.268Z,14.18
2023-03-21T16:39:20.817Z,14.22
2023-03-21T16:40:52.692Z,14.25
2023-03-21T16:42:24.315Z,14.28
2023-03-21T16:43:55.973Z,14.32
2023-03-21T16:45:29.386Z,14.35
2023-03-21T16:47:02.488Z,14.38
2023-03-21T16:48:35.126Z,14.41
2023-03-21T16:50:23.187Z,14.46
2023-03-21T16:51:55.679Z,14.44
2023-03-21T16:53:28.172Z,14.41
2023-03-21T16:54:59.949Z,14.38
2023-03-21T16:56:38.968Z,14.29
2023-03-21T16:58:11.396Z,14.22
2023-03-21T16:59:43.246Z,14.20
2023-03-21T17:01:19.461Z,14.15
2023-03-21T17:02:52.159Z,14.16
2023-03-21T17:04:24.984Z,14.16
2023-03-21T17:05:56.978Z,14.15
2023-03-21T17:07:28.695Z,14.16
2023-03-21T17:09:00.751Z,14.18
2023-03-21T17:10:33.068Z,14.20
2023-03-21T17:12:06.338Z,14.18
2023-03-21T17:13:37.994Z,14.14
2023-03-21T17:15:10.706Z,14.11
2023-03-21T17:16:43.211Z,14.10
2023-03-21T17:18:15.041Z,14.08
2023-03-21T17:19:47.453Z,14.01
2023-03-21T17:21:20.126Z,14.02
2023-03-21T17:22:52.150Z,14.03
2023-03-21T17:24:24.202Z,13.99
2023-03-21T17:25:56.264Z,13.96
2023-03-21T17:27:27.854Z,13.95
2023-03-21T17:29:00.118Z,13.94
2023-03-21T17:30:32.973Z,13.94
2023-03-21T17:32:04.698Z,13.95
2023-03-21T17:33:36.495Z,13.95
2023-03-21T17:35:08.270Z,13.95
2023-03-21T17:36:40.859Z,13.94
2023-03-21T17:38:14.171Z,13.91
2023-03-21T17:39:46.323Z,13.87
2023-03-21T17:41:18.867Z,13.86
2023-03-21T17:42:51.086Z,13.81
2023-03-21T17:44:26.088Z,13.79
2023-03-21T17:45:59.012Z,13.81
2023-03-21T17:47:31.354Z,13.82
2023-03-21T17:49:03.282Z,13.84
2023-03-21T17:50:37.537Z,13.84
2023-03-21T17:52:10.441Z,13.85
2023-03-21T17:53:51.719Z,13.87
2023-03-21T17:55:23.279Z,13.88
2023-03-21T17:56:56.726Z,13.89
2023-03-21T17:58:28.537Z,13.88
2023-03-21T18:00:00.272Z,13.82
2023-03-21T18:01:32.084Z,13.80
2023-03-21T18:03:04.041Z,13.77
2023-03-21T18:04:35.892Z,13.73
2023-03-21T18:06:07.947Z,13.73
2023-03-21T18:09:34.505Z,13.77
2023-03-21T18:11:16.395Z,13.74
2023-03-21T18:12:48.132Z,13.74
2023-03-21T18:14:27.917Z,13.70
2023-03-21T18:16:00.585Z,13.67
2023-03-21T18:17:32.615Z,13.65
2023-03-21T18:19:04.364Z,13.59
2023-03-21T18:20:51.811Z,13.54
2023-03-21T18:22:24.553Z,13.44
2023-03-21T18:23:56.497Z,13.40
2023-03-21T18:25:28.455Z,13.39
2023-03-21T18:27:00.103Z,13.38
2023-03-21T18:28:31.904Z,13.41
2023-03-21T18:30:41.106Z,13.45
2023-03-21T18:32:08.831Z,13.46
2023-03-21T18:33:41.107Z,13.48
2023-03-21T18:35:13.365Z,13.45
2023-03-21T18:36:45.331Z,13.48
2023-03-21T18:38:18.128Z,13.46
2023-03-21T18:39:52.972Z,13.43
2023-03-21T18:41:24.692Z,13.36
2023-03-21T18:43:49.907Z,13.33
2023-03-21T18:44:49.141Z,13.30
2023-03-21T18:46:21.387Z,13.29
2023-03-21T18:47:53.101Z,13.32
2023-03-21T18:50:05.841Z,13.35
2023-03-21T18:51:17.746Z,13.39
2023-03-21T18:52:49.334Z,13.39
2023-03-21T18:54:21.656Z,13.40
2023-03-21T18:55:53.513Z,13.40
2023-03-21T18:57:36.477Z,13.38
2023-03-21T18:59:09.643Z,13.37
2023-03-21T19:00:42.816Z,13.36
2023-03-21T19:02:14.841Z,13.35
2023-03-21T19:04:11.622Z,13.34
2023-03-21T19:05:40.990Z,13.36
2023-03-21T19:07:12.912Z,13.34
2023-03-21T19:08:44.598Z,13.33
2023-03-21T19:10:19.444Z,13.30
2023-03-21T19:11:52.067Z,13.28
2023-03-21T19:13:23.816Z,13.23
2023-03-21T19:14:55.788Z,13.18
2023-03-21T19:16:31.505Z,13.16
2023-03-21T19:20:02.546Z,13.08
2023-03-21T19:21:34.190Z,13.07
2023-03-21T19:23:08.201Z,13.08
2023-03-21T19:24:41.438Z,13.11
2023-03-21T19:26:13.153Z,13.13
2023-03-21T19:27:44.876Z,13.13
2023-03-21T19:29:16.667Z,13.09
2023-03-21T19:30:50.648Z,13.02
2023-03-21T19:32:22.906Z,12.99
2023-03-21T19:33:54.514Z,12.97
2023-03-21T19:35:27.140Z,12.94
2023-03-21T19:37:02.477Z,12.92
2023-03-21T19:38:34.287Z,12.95
2023-03-21T19:40:06.428Z,12.96
2023-03-21T19:41:39.951Z,12.96
2023-03-21T19:43:31.724Z,12.97
2023-03-21T19:45:05.858Z,12.98
2023-03-21T19:46:37.520Z,12.98
2023-03-21T19:48:09.311Z,12.99
2023-03-21T19:51:33.628Z,12.98
2023-03-21T19:53:05.512Z,13.00
2023-03-21T19:54:37.732Z,13.05
2023-03-21T19:56:20.690Z,13.05
2023-03-21T19:57:54.877Z,13.02
2023-03-21T19:59:26.580Z,13.02
2023-03-21T20:00:58.359Z,13.01
2023-03-21T20:02:37.493Z,13.02
2023-03-21T20:04:09.396Z,13.04
2023-03-21T20:05:41.241Z,13.02
2023-03-21T20:07:12.961Z,13.01
2023-03-21T20:10:36.447Z,12.94
2023-03-21T20:12:09.089Z,12.90
2023-03-21T20:13:41.139Z,12.89
2023-03-21T20:15:18.714Z,12.89
2023-03-21T20:16:55.337Z,12.89
2023-03-21T20:18:27.371Z,12.89
2023-03-21T20:20:00.296Z,12.86
2023-03-21T20:21:40.346Z,12.84
2023-03-21T20:23:16.893Z,12.83
2023-03-21T20:24:48.759Z,12.85
2023-03-21T20:26:20.490Z,12.84
2023-03-21T20:28:10.497Z,12.85
2023-03-21T20:31:35.972Z,12.82
2023-03-21T20:33:08.364Z,12.80
2023-03-21T20:34:40.350Z,12.77
2023-03-21T20:38:04.086Z,12.70
2023-03-21T20:39:36.088Z,12.67
2023-03-21T20:41:07.680Z,12.66
2023-03-21T20:42:39.892Z,12.68
2023-03-21T20:44:42.152Z,12.66
2023-03-21T20:46:10.800Z,12.67
2023-03-21T20:47:42.793Z,12.68
2023-03-21T20:49:15.489Z,12.68
2023-03-21T20:50:47.214Z,12.67
2023-03-21T20:54:11.419Z,12.66